sensor_id;sensor_type;location;lat;lon;timestamp;P1;durP1;ratioP1;P2;durP2;ratioP2
54555;SDS011;57291;37.520;15.106;2022-07-11T00:02:05;5.55;;;1.70;;
54555;SDS011;57291;37.520;15.106;2022-07-11T00:04:33;3.15;;;1.60;;
54555;SDS011;57291;37.520;15.106;2022-07-11T00:06:59;4.50;;;1.88;;
54555;SDS011;57291;37.520;15.106;2022-07-11T00:09:26;3.60;;;1.88;;
54555;SDS011;57291;37.520;15.106;2022-07-11T00:11:52;3.55;;;1.95;;
54555;SDS011;57291;37.520;15.106;2022-07-11T00:14:18;5.95;;;2.17;;
54555;SDS011;57291;37.520;15.106;2022-07-11T00:16:44;3.03;;;1.70;;
54555;SDS011;57291;37.520;15.106;2022-07-11T00:19:10;4.15;;;1.70;;
54555;SDS011;57291;37.520;15.106;2022-07-11T00:21:36;3.90;;;1.70;;
54555;SDS011;57291;37.520;15.106;2022-07-11T00:24:05;3.38;;;1.70;;
54555;SDS011;57291;37.520;15.106;2022-07-11T00:26:34;5.03;;;2.00;;
54555;SDS011;57291;37.520;15.106;2022-07-11T00:29:02;2.90;;;1.60;;
54555;SDS011;57291;37.520;15.106;2022-07-11T00:31:29;3.03;;;1.55;;
54555;SDS011;57291;37.520;15.106;2022-07-11T00:33:55;4.90;;;2.03;;
54555;SDS011;57291;37.520;15.106;2022-07-11T00:36:21;4.85;;;2.03;;
54555;SDS011;57291;37.520;15.106;2022-07-11T00:38:47;6.82;;;2.38;;
54555;SDS011;57291;37.520;15.106;2022-07-11T00:41:13;6.75;;;2.20;;
54555;SDS011;57291;37.520;15.106;2022-07-11T00:43:40;3.60;;;2.00;;
54555;SDS011;57291;37.520;15.106;2022-07-11T00:46:08;3.58;;;2.28;;
54555;SDS011;57291;37.520;15.106;2022-07-11T00:48:34;4.03;;;2.38;;
54555;SDS011;57291;37.520;15.106;2022-07-11T00:51:02;5.72;;;2.25;;
54555;SDS011;57291;37.520;15.106;2022-07-11T00:53:29;6.30;;;2.45;;
54555;SDS011;57291;37.520;15.106;2022-07-11T00:55:56;8.85;;;2.20;;
54555;SDS011;57291;37.520;15.106;2022-07-11T00:58:22;5.15;;;2.33;;
54555;SDS011;57291;37.520;15.106;2022-07-11T01:00:48;5.70;;;2.45;;
54555;SDS011;57291;37.520;15.106;2022-07-11T01:03:14;5.15;;;2.38;;
54555;SDS011;57291;37.520;15.106;2022-07-11T01:05:40;5.38;;;2.28;;
54555;SDS011;57291;37.520;15.106;2022-07-11T01:08:06;5.15;;;2.13;;
54555;SDS011;57291;37.520;15.106;2022-07-11T01:10:32;5.28;;;2.22;;
54555;SDS011;57291;37.520;15.106;2022-07-11T01:12:58;3.47;;;1.95;;
54555;SDS011;57291;37.520;15.106;2022-07-11T01:15:24;6.68;;;2.15;;
54555;SDS011;57291;37.520;15.106;2022-07-11T01:17:50;4.45;;;1.80;;
54555;SDS011;57291;37.520;15.106;2022-07-11T01:20:19;11.15;;;2.38;;
54555;SDS011;57291;37.520;15.106;2022-07-11T01:22:55;5.60;;;1.90;;
54555;SDS011;57291;37.520;15.106;2022-07-11T01:25:26;6.20;;;1.90;;
54555;SDS011;57291;37.520;15.106;2022-07-11T01:27:56;3.17;;;1.80;;
54555;SDS011;57291;37.520;15.106;2022-07-11T01:30:29;5.90;;;1.70;;
54555;SDS011;57291;37.520;15.106;2022-07-11T01:32:57;5.60;;;1.85;;
54555;SDS011;57291;37.520;15.106;2022-07-11T01:35:24;5.00;;;1.95;;
54555;SDS011;57291;37.520;15.106;2022-07-11T01:37:50;5.03;;;2.05;;
54555;SDS011;57291;37.520;15.106;2022-07-11T01:40:16;5.50;;;2.10;;
54555;SDS011;57291;37.520;15.106;2022-07-11T01:42:43;3.97;;;1.92;;
54555;SDS011;57291;37.520;15.106;2022-07-11T01:45:12;4.90;;;1.70;;
54555;SDS011;57291;37.520;15.106;2022-07-11T01:47:39;4.38;;;1.73;;
54555;SDS011;57291;37.520;15.106;2022-07-11T01:50:06;5.70;;;2.40;;
54555;SDS011;57291;37.520;15.106;2022-07-11T01:52:33;3.20;;;1.80;;
54555;SDS011;57291;37.520;15.106;2022-07-11T01:54:59;4.20;;;1.65;;
54555;SDS011;57291;37.520;15.106;2022-07-11T01:57:25;3.63;;;1.98;;
54555;SDS011;57291;37.520;15.106;2022-07-11T01:59:51;3.30;;;1.80;;
54555;SDS011;57291;37.520;15.106;2022-07-11T02:02:17;3.05;;;1.50;;
54555;SDS011;57291;37.520;15.106;2022-07-11T02:04:43;3.95;;;1.45;;
54555;SDS011;57291;37.520;15.106;2022-07-11T02:07:09;7.75;;;1.50;;
54555;SDS011;57291;37.520;15.106;2022-07-11T02:09:37;3.95;;;1.67;;
54555;SDS011;57291;37.520;15.106;2022-07-11T02:12:04;5.53;;;1.85;;
54555;SDS011;57291;37.520;15.106;2022-07-11T02:14:31;2.78;;;1.48;;
54555;SDS011;57291;37.520;15.106;2022-07-11T02:16:57;5.43;;;1.60;;
54555;SDS011;57291;37.520;15.106;2022-07-11T02:19:24;3.47;;;1.63;;
54555;SDS011;57291;37.520;15.106;2022-07-11T02:21:50;3.38;;;1.30;;
54555;SDS011;57291;37.520;15.106;2022-07-11T02:24:16;4.70;;;1.60;;
54555;SDS011;57291;37.520;15.106;2022-07-11T02:26:43;3.45;;;1.60;;
54555;SDS011;57291;37.520;15.106;2022-07-11T02:29:10;5.40;;;1.30;;
54555;SDS011;57291;37.520;15.106;2022-07-11T02:31:36;3.28;;;1.50;;
54555;SDS011;57291;37.520;15.106;2022-07-11T02:34:02;4.78;;;1.50;;
54555;SDS011;57291;37.520;15.106;2022-07-11T02:36:28;3.53;;;1.40;;
54555;SDS011;57291;37.520;15.106;2022-07-11T02:38:54;3.72;;;1.85;;
54555;SDS011;57291;37.520;15.106;2022-07-11T02:41:20;4.53;;;1.27;;
54555;SDS011;57291;37.520;15.106;2022-07-11T02:43:46;3.28;;;1.52;;
54555;SDS011;57291;37.520;15.106;2022-07-11T02:46:12;5.47;;;1.50;;
54555;SDS011;57291;37.520;15.106;2022-07-11T02:48:38;4.22;;;1.50;;
54555;SDS011;57291;37.520;15.106;2022-07-11T02:51:04;2.70;;;1.42;;
54555;SDS011;57291;37.520;15.106;2022-07-11T02:53:31;4.38;;;1.60;;
54555;SDS011;57291;37.520;15.106;2022-07-11T02:55:57;2.38;;;1.50;;
54555;SDS011;57291;37.520;15.106;2022-07-11T02:58:22;5.60;;;1.63;;
54555;SDS011;57291;37.520;15.106;2022-07-11T03:00:48;3.40;;;1.45;;
54555;SDS011;57291;37.520;15.106;2022-07-11T03:03:14;2.20;;;1.30;;
54555;SDS011;57291;37.520;15.106;2022-07-11T03:05:41;4.15;;;1.10;;
54555;SDS011;57291;37.520;15.106;2022-07-11T03:08:07;3.47;;;1.80;;
54555;SDS011;57291;37.520;15.106;2022-07-11T03:10:33;3.72;;;1.50;;
54555;SDS011;57291;37.520;15.106;2022-07-11T03:12:59;6.45;;;1.60;;
54555;SDS011;57291;37.520;15.106;2022-07-11T03:15:25;3.67;;;1.63;;
54555;SDS011;57291;37.520;15.106;2022-07-11T03:17:51;4.53;;;1.70;;
54555;SDS011;57291;37.520;15.106;2022-07-11T03:20:17;2.65;;;1.40;;
54555;SDS011;57291;37.520;15.106;2022-07-11T03:22:43;3.78;;;1.63;;
54555;SDS011;57291;37.520;15.106;2022-07-11T03:25:10;3.70;;;1.80;;
54555;SDS011;57291;37.520;15.106;2022-07-11T03:27:36;3.22;;;1.60;;
54555;SDS011;57291;37.520;15.106;2022-07-11T03:30:03;2.80;;;1.55;;
54555;SDS011;57291;37.520;15.106;2022-07-11T03:32:29;5.50;;;1.58;;
54555;SDS011;57291;37.520;15.106;2022-07-11T03:34:55;2.40;;;1.50;;
54555;SDS011;57291;37.520;15.106;2022-07-11T03:37:40;2.28;;;1.63;;
54555;SDS011;57291;37.520;15.106;2022-07-11T03:40:06;4.50;;;2.03;;
54555;SDS011;57291;37.520;15.106;2022-07-11T03:42:33;3.33;;;1.67;;
54555;SDS011;57291;37.520;15.106;2022-07-11T03:44:59;3.58;;;1.80;;
54555;SDS011;57291;37.520;15.106;2022-07-11T03:47:26;4.07;;;1.80;;
54555;SDS011;57291;37.520;15.106;2022-07-11T03:49:52;4.32;;;1.73;;
54555;SDS011;57291;37.520;15.106;2022-07-11T03:52:18;3.10;;;1.50;;
54555;SDS011;57291;37.520;15.106;2022-07-11T03:54:44;6.53;;;2.00;;
54555;SDS011;57291;37.520;15.106;2022-07-11T03:57:10;3.60;;;2.15;;
54555;SDS011;57291;37.520;15.106;2022-07-11T03:59:36;12.02;;;2.00;;
54555;SDS011;57291;37.520;15.106;2022-07-11T04:02:02;3.45;;;2.13;;
54555;SDS011;57291;37.520;15.106;2022-07-11T04:04:29;5.85;;;2.60;;
54555;SDS011;57291;37.520;15.106;2022-07-11T04:06:55;4.13;;;1.98;;
54555;SDS011;57291;37.520;15.106;2022-07-11T04:09:21;5.35;;;2.58;;
54555;SDS011;57291;37.520;15.106;2022-07-11T04:11:46;4.97;;;2.20;;
54555;SDS011;57291;37.520;15.106;2022-07-11T04:14:13;2.90;;;2.03;;
54555;SDS011;57291;37.520;15.106;2022-07-11T04:16:39;5.85;;;2.47;;
54555;SDS011;57291;37.520;15.106;2022-07-11T04:19:04;6.75;;;2.72;;
54555;SDS011;57291;37.520;15.106;2022-07-11T04:21:30;5.05;;;2.85;;
54555;SDS011;57291;37.520;15.106;2022-07-11T04:23:56;3.95;;;2.40;;
54555;SDS011;57291;37.520;15.106;2022-07-11T04:26:22;6.88;;;2.53;;
54555;SDS011;57291;37.520;15.106;2022-07-11T04:28:48;6.53;;;2.67;;
54555;SDS011;57291;37.520;15.106;2022-07-11T04:31:14;4.75;;;2.30;;
54555;SDS011;57291;37.520;15.106;2022-07-11T04:33:40;6.40;;;2.58;;
54555;SDS011;57291;37.520;15.106;2022-07-11T04:36:06;4.63;;;2.40;;
54555;SDS011;57291;37.520;15.106;2022-07-11T04:38:33;6.45;;;2.28;;
54555;SDS011;57291;37.520;15.106;2022-07-11T04:41:00;5.82;;;2.50;;
54555;SDS011;57291;37.520;15.106;2022-07-11T04:43:47;4.32;;;2.20;;
54555;SDS011;57291;37.520;15.106;2022-07-11T04:46:13;4.65;;;2.30;;
54555;SDS011;57291;37.520;15.106;2022-07-11T04:48:39;9.00;;;2.38;;
54555;SDS011;57291;37.520;15.106;2022-07-11T04:51:05;3.10;;;1.95;;
54555;SDS011;57291;37.520;15.106;2022-07-11T04:53:32;3.95;;;2.20;;
54555;SDS011;57291;37.520;15.106;2022-07-11T04:55:58;3.92;;;2.13;;
54555;SDS011;57291;37.520;15.106;2022-07-11T04:58:24;4.18;;;1.98;;
54555;SDS011;57291;37.520;15.106;2022-07-11T05:00:50;5.32;;;2.13;;
54555;SDS011;57291;37.520;15.106;2022-07-11T05:03:16;5.65;;;2.20;;
54555;SDS011;57291;37.520;15.106;2022-07-11T05:05:44;6.53;;;2.55;;
54555;SDS011;57291;37.520;15.106;2022-07-11T05:08:10;4.90;;;2.30;;
54555;SDS011;57291;37.520;15.106;2022-07-11T05:10:36;4.03;;;2.17;;
54555;SDS011;57291;37.520;15.106;2022-07-11T05:13:02;5.18;;;2.58;;
54555;SDS011;57291;37.520;15.106;2022-07-11T05:15:28;3.17;;;2.40;;
54555;SDS011;57291;37.520;15.106;2022-07-11T05:17:54;5.78;;;2.20;;
54555;SDS011;57291;37.520;15.106;2022-07-11T05:20:19;4.70;;;2.40;;
54555;SDS011;57291;37.520;15.106;2022-07-11T05:22:45;4.38;;;2.33;;
54555;SDS011;57291;37.520;15.106;2022-07-11T05:25:11;4.25;;;2.20;;
54555;SDS011;57291;37.520;15.106;2022-07-11T05:27:37;7.32;;;2.20;;
54555;SDS011;57291;37.520;15.106;2022-07-11T05:30:03;6.20;;;2.40;;
54555;SDS011;57291;37.520;15.106;2022-07-11T05:32:30;8.18;;;2.47;;
54555;SDS011;57291;37.520;15.106;2022-07-11T05:34:56;4.47;;;2.53;;
54555;SDS011;57291;37.520;15.106;2022-07-11T05:37:23;5.60;;;2.55;;
54555;SDS011;57291;37.520;15.106;2022-07-11T05:39:49;8.50;;;2.97;;
54555;SDS011;57291;37.520;15.106;2022-07-11T05:42:16;8.25;;;3.08;;
54555;SDS011;57291;37.520;15.106;2022-07-11T05:44:42;7.38;;;2.35;;
54555;SDS011;57291;37.520;15.106;2022-07-11T05:47:08;6.95;;;2.67;;
54555;SDS011;57291;37.520;15.106;2022-07-11T05:49:34;7.03;;;2.55;;
54555;SDS011;57291;37.520;15.106;2022-07-11T05:51:59;5.55;;;2.70;;
54555;SDS011;57291;37.520;15.106;2022-07-11T05:54:27;5.60;;;2.40;;
54555;SDS011;57291;37.520;15.106;2022-07-11T05:56:53;7.07;;;2.03;;
54555;SDS011;57291;37.520;15.106;2022-07-11T05:59:20;5.15;;;2.33;;
54555;SDS011;57291;37.520;15.106;2022-07-11T06:01:46;6.35;;;2.20;;
54555;SDS011;57291;37.520;15.106;2022-07-11T06:04:12;3.58;;;2.03;;
54555;SDS011;57291;37.520;15.106;2022-07-11T06:06:39;5.15;;;2.10;;
54555;SDS011;57291;37.520;15.106;2022-07-11T06:09:05;3.50;;;2.00;;
54555;SDS011;57291;37.520;15.106;2022-07-11T06:11:36;3.88;;;2.05;;
54555;SDS011;57291;37.520;15.106;2022-07-11T06:14:02;3.00;;;1.65;;
54555;SDS011;57291;37.520;15.106;2022-07-11T06:16:28;4.80;;;1.80;;
54555;SDS011;57291;37.520;15.106;2022-07-11T06:18:54;6.28;;;1.50;;
54555;SDS011;57291;37.520;15.106;2022-07-11T06:21:20;3.00;;;1.30;;
54555;SDS011;57291;37.520;15.106;2022-07-11T06:23:46;3.92;;;1.60;;
54555;SDS011;57291;37.520;15.106;2022-07-11T06:26:12;4.10;;;1.73;;
54555;SDS011;57291;37.520;15.106;2022-07-11T06:28:40;5.85;;;2.10;;
54555;SDS011;57291;37.520;15.106;2022-07-11T06:31:06;5.60;;;2.08;;
54555;SDS011;57291;37.520;15.106;2022-07-11T06:33:33;4.53;;;1.95;;
54555;SDS011;57291;37.520;15.106;2022-07-11T06:36:00;5.55;;;2.08;;
54555;SDS011;57291;37.520;15.106;2022-07-11T06:38:27;4.25;;;1.80;;
54555;SDS011;57291;37.520;15.106;2022-07-11T06:40:54;4.40;;;2.03;;
54555;SDS011;57291;37.520;15.106;2022-07-11T06:43:21;3.03;;;1.67;;
54555;SDS011;57291;37.520;15.106;2022-07-11T06:45:47;2.65;;;1.80;;
54555;SDS011;57291;37.520;15.106;2022-07-11T06:48:13;4.97;;;1.77;;
54555;SDS011;57291;37.520;15.106;2022-07-11T06:50:39;3.75;;;1.80;;
54555;SDS011;57291;37.520;15.106;2022-07-11T06:53:05;4.22;;;1.83;;
54555;SDS011;57291;37.520;15.106;2022-07-11T06:55:31;2.85;;;2.00;;
54555;SDS011;57291;37.520;15.106;2022-07-11T06:57:58;5.25;;;2.00;;
54555;SDS011;57291;37.520;15.106;2022-07-11T07:00:24;6.32;;;2.40;;
54555;SDS011;57291;37.520;15.106;2022-07-11T07:02:49;6.38;;;2.53;;
54555;SDS011;57291;37.520;15.106;2022-07-11T07:05:16;4.35;;;2.55;;
54555;SDS011;57291;37.520;15.106;2022-07-11T07:07:41;7.72;;;2.42;;
54555;SDS011;57291;37.520;15.106;2022-07-11T07:10:08;5.95;;;2.42;;
54555;SDS011;57291;37.520;15.106;2022-07-11T07:12:38;6.43;;;2.33;;
54555;SDS011;57291;37.520;15.106;2022-07-11T07:15:05;6.90;;;2.13;;
54555;SDS011;57291;37.520;15.106;2022-07-11T07:17:31;3.78;;;2.08;;
54555;SDS011;57291;37.520;15.106;2022-07-11T07:19:57;3.65;;;1.70;;
54555;SDS011;57291;37.520;15.106;2022-07-11T07:22:23;4.53;;;3.17;;
54555;SDS011;57291;37.520;15.106;2022-07-11T07:24:48;5.43;;;1.80;;
54555;SDS011;57291;37.520;15.106;2022-07-11T07:27:15;5.53;;;1.83;;
54555;SDS011;57291;37.520;15.106;2022-07-11T07:29:40;4.85;;;1.90;;
54555;SDS011;57291;37.520;15.106;2022-07-11T07:32:06;5.55;;;1.80;;
54555;SDS011;57291;37.520;15.106;2022-07-11T07:34:33;4.28;;;1.63;;
54555;SDS011;57291;37.520;15.106;2022-07-11T07:36:59;6.10;;;1.90;;
54555;SDS011;57291;37.520;15.106;2022-07-11T07:39:25;4.95;;;2.13;;
54555;SDS011;57291;37.520;15.106;2022-07-11T07:41:51;4.65;;;1.95;;
54555;SDS011;57291;37.520;15.106;2022-07-11T07:44:17;4.88;;;2.08;;
54555;SDS011;57291;37.520;15.106;2022-07-11T07:46:43;4.70;;;2.13;;
54555;SDS011;57291;37.520;15.106;2022-07-11T07:49:09;5.75;;;2.13;;
54555;SDS011;57291;37.520;15.106;2022-07-11T07:51:35;5.15;;;2.03;;
54555;SDS011;57291;37.520;15.106;2022-07-11T07:54:02;5.13;;;2.28;;
54555;SDS011;57291;37.520;15.106;2022-07-11T07:56:29;3.78;;;1.55;;
54555;SDS011;57291;37.520;15.106;2022-07-11T07:58:55;3.70;;;2.00;;
54555;SDS011;57291;37.520;15.106;2022-07-11T08:01:22;4.22;;;2.15;;
54555;SDS011;57291;37.520;15.106;2022-07-11T08:04:06;6.10;;;2.45;;
54555;SDS011;57291;37.520;15.106;2022-07-11T08:06:34;6.47;;;1.70;;
54555;SDS011;57291;37.520;15.106;2022-07-11T08:09:01;5.30;;;2.42;;
54555;SDS011;57291;37.520;15.106;2022-07-11T08:11:28;4.15;;;2.28;;
54555;SDS011;57291;37.520;15.106;2022-07-11T08:13:55;6.28;;;2.55;;
54555;SDS011;57291;37.520;15.106;2022-07-11T08:16:21;4.72;;;2.10;;
54555;SDS011;57291;37.520;15.106;2022-07-11T08:18:47;5.28;;;2.28;;
54555;SDS011;57291;37.520;15.106;2022-07-11T08:21:13;5.68;;;2.30;;
54555;SDS011;57291;37.520;15.106;2022-07-11T08:23:39;6.80;;;2.38;;
54555;SDS011;57291;37.520;15.106;2022-07-11T08:26:04;4.38;;;2.08;;
54555;SDS011;57291;37.520;15.106;2022-07-11T08:28:30;4.25;;;1.88;;
54555;SDS011;57291;37.520;15.106;2022-07-11T08:30:56;4.07;;;1.90;;
54555;SDS011;57291;37.520;15.106;2022-07-11T08:33:23;4.82;;;2.50;;
54555;SDS011;57291;37.520;15.106;2022-07-11T08:35:49;3.75;;;2.13;;
54555;SDS011;57291;37.520;15.106;2022-07-11T08:38:15;5.63;;;1.90;;
54555;SDS011;57291;37.520;15.106;2022-07-11T08:40:41;3.58;;;2.20;;
54555;SDS011;57291;37.520;15.106;2022-07-11T08:43:14;6.07;;;2.10;;
54555;SDS011;57291;37.520;15.106;2022-07-11T08:45:41;5.00;;;1.98;;
54555;SDS011;57291;37.520;15.106;2022-07-11T08:48:08;4.18;;;1.48;;
54555;SDS011;57291;37.520;15.106;2022-07-11T08:50:34;5.25;;;2.17;;
54555;SDS011;57291;37.520;15.106;2022-07-11T08:53:02;5.93;;;1.77;;
54555;SDS011;57291;37.520;15.106;2022-07-11T08:55:29;6.18;;;1.88;;
54555;SDS011;57291;37.520;15.106;2022-07-11T08:57:55;4.13;;;2.05;;
54555;SDS011;57291;37.520;15.106;2022-07-11T09:00:22;6.13;;;2.22;;
54555;SDS011;57291;37.520;15.106;2022-07-11T09:02:49;4.22;;;1.85;;
54555;SDS011;57291;37.520;15.106;2022-07-11T09:05:15;3.72;;;1.42;;
54555;SDS011;57291;37.520;15.106;2022-07-11T09:07:42;2.97;;;1.63;;
54555;SDS011;57291;37.520;15.106;2022-07-11T09:10:12;5.45;;;1.98;;
54555;SDS011;57291;37.520;15.106;2022-07-11T09:15:33;4.95;;;1.67;;
54555;SDS011;57291;37.520;15.106;2022-07-11T09:21:01;5.75;;;1.70;;
54555;SDS011;57291;37.520;15.106;2022-07-11T09:23:46;2.75;;;1.65;;
54555;SDS011;57291;37.520;15.106;2022-07-11T09:26:31;3.00;;;1.70;;
54555;SDS011;57291;37.520;15.106;2022-07-11T09:28:58;5.40;;;1.85;;
54555;SDS011;57291;37.520;15.106;2022-07-11T09:31:30;3.53;;;1.92;;
54555;SDS011;57291;37.520;15.106;2022-07-11T09:34:04;4.30;;;1.98;;
54555;SDS011;57291;37.520;15.106;2022-07-11T09:39:03;4.13;;;2.30;;
54555;SDS011;57291;37.520;15.106;2022-07-11T09:41:32;3.47;;;2.05;;
54555;SDS011;57291;37.520;15.106;2022-07-11T09:44:09;3.42;;;2.08;;
54555;SDS011;57291;37.520;15.106;2022-07-11T09:46:39;5.20;;;2.40;;
54555;SDS011;57291;37.520;15.106;2022-07-11T09:49:06;3.00;;;2.00;;
54555;SDS011;57291;37.520;15.106;2022-07-11T09:51:33;5.72;;;2.35;;
54555;SDS011;57291;37.520;15.106;2022-07-11T09:54:00;6.38;;;2.40;;
54555;SDS011;57291;37.520;15.106;2022-07-11T09:59:07;3.75;;;2.10;;
54555;SDS011;57291;37.520;15.106;2022-07-11T10:01:35;6.13;;;2.67;;
54555;SDS011;57291;37.520;15.106;2022-07-11T10:04:02;4.15;;;2.10;;
54555;SDS011;57291;37.520;15.106;2022-07-11T10:06:34;3.95;;;2.30;;
54555;SDS011;57291;37.520;15.106;2022-07-11T10:09:01;5.97;;;2.55;;
54555;SDS011;57291;37.520;15.106;2022-07-11T10:11:30;5.70;;;2.08;;
54555;SDS011;57291;37.520;15.106;2022-07-11T10:13:58;3.30;;;2.45;;
54555;SDS011;57291;37.520;15.106;2022-07-11T10:29:50;5.63;;;2.00;;
54555;SDS011;57291;37.520;15.106;2022-07-11T10:32:17;4.60;;;1.90;;
54555;SDS011;57291;37.520;15.106;2022-07-11T10:34:44;4.65;;;2.05;;
54555;SDS011;57291;37.520;15.106;2022-07-11T10:37:12;5.22;;;2.00;;
54555;SDS011;57291;37.520;15.106;2022-07-11T10:39:39;3.50;;;1.88;;
54555;SDS011;57291;37.520;15.106;2022-07-11T10:42:21;6.00;;;1.92;;
54555;SDS011;57291;37.520;15.106;2022-07-11T10:44:51;2.80;;;1.73;;
54555;SDS011;57291;37.520;15.106;2022-07-11T10:50:53;4.45;;;1.80;;
54555;SDS011;57291;37.520;15.106;2022-07-11T10:53:07;4.78;;;2.10;;
54555;SDS011;57291;37.520;15.106;2022-07-11T10:55:39;4.80;;;2.13;;
54555;SDS011;57291;37.520;15.106;2022-07-11T10:58:19;3.47;;;1.85;;
54555;SDS011;57291;37.520;15.106;2022-07-11T11:03:38;3.85;;;1.90;;
54555;SDS011;57291;37.520;15.106;2022-07-11T11:06:05;2.72;;;1.70;;
54555;SDS011;57291;37.520;15.106;2022-07-11T11:16:51;2.85;;;1.45;;
54555;SDS011;57291;37.520;15.106;2022-07-11T11:22:14;2.65;;;1.70;;
54555;SDS011;57291;37.520;15.106;2022-07-11T11:24:42;2.97;;;1.63;;
54555;SDS011;57291;37.520;15.106;2022-07-11T11:27:15;3.63;;;1.77;;
54555;SDS011;57291;37.520;15.106;2022-07-11T11:29:47;4.47;;;1.70;;
54555;SDS011;57291;37.520;15.106;2022-07-11T11:32:15;2.97;;;1.70;;
54555;SDS011;57291;37.520;15.106;2022-07-11T11:34:41;4.15;;;1.80;;
54555;SDS011;57291;37.520;15.106;2022-07-11T11:37:08;3.10;;;1.73;;
54555;SDS011;57291;37.520;15.106;2022-07-11T11:39:35;4.22;;;1.80;;
54555;SDS011;57291;37.520;15.106;2022-07-11T11:44:31;4.90;;;1.90;;
54555;SDS011;57291;37.520;15.106;2022-07-11T11:46:58;3.72;;;1.77;;
54555;SDS011;57291;37.520;15.106;2022-07-11T11:49:24;2.60;;;1.55;;
54555;SDS011;57291;37.520;15.106;2022-07-11T11:51:49;3.50;;;2.35;;
54555;SDS011;57291;37.520;15.106;2022-07-11T11:54:23;4.88;;;2.03;;
54555;SDS011;57291;37.520;15.106;2022-07-11T11:56:50;6.13;;;1.90;;
54555;SDS011;57291;37.520;15.106;2022-07-11T11:59:17;3.28;;;1.65;;
54555;SDS011;57291;37.520;15.106;2022-07-11T12:01:45;5.47;;;2.20;;
54555;SDS011;57291;37.520;15.106;2022-07-11T12:04:12;4.93;;;2.10;;
54555;SDS011;57291;37.520;15.106;2022-07-11T12:06:44;4.88;;;2.10;;
54555;SDS011;57291;37.520;15.106;2022-07-11T12:11:44;4.93;;;2.13;;
54555;SDS011;57291;37.520;15.106;2022-07-11T12:14:34;4.27;;;2.00;;
54555;SDS011;57291;37.520;15.106;2022-07-11T12:17:00;3.92;;;2.03;;
54555;SDS011;57291;37.520;15.106;2022-07-11T12:19:31;3.17;;;2.00;;
54555;SDS011;57291;37.520;15.106;2022-07-11T12:22:02;3.80;;;2.08;;
54555;SDS011;57291;37.520;15.106;2022-07-11T12:24:29;3.58;;;1.80;;
54555;SDS011;57291;37.520;15.106;2022-07-11T12:26:55;5.90;;;1.95;;
54555;SDS011;57291;37.520;15.106;2022-07-11T12:29:23;4.20;;;2.00;;
54555;SDS011;57291;37.520;15.106;2022-07-11T12:34:24;3.40;;;1.88;;
54555;SDS011;57291;37.520;15.106;2022-07-11T12:37:02;3.03;;;1.75;;
54555;SDS011;57291;37.520;15.106;2022-07-11T12:39:30;4.32;;;1.98;;
54555;SDS011;57291;37.520;15.106;2022-07-11T12:41:59;5.70;;;1.83;;
54555;SDS011;57291;37.520;15.106;2022-07-11T12:44:27;4.47;;;1.77;;
54555;SDS011;57291;37.520;15.106;2022-07-11T12:47:12;2.90;;;1.88;;
54555;SDS011;57291;37.520;15.106;2022-07-11T12:49:40;6.88;;;2.00;;
54555;SDS011;57291;37.520;15.106;2022-07-11T12:52:12;3.78;;;2.10;;
54555;SDS011;57291;37.520;15.106;2022-07-11T12:54:39;2.72;;;1.80;;
54555;SDS011;57291;37.520;15.106;2022-07-11T12:57:05;2.80;;;1.85;;
54555;SDS011;57291;37.520;15.106;2022-07-11T12:59:32;5.07;;;2.10;;
54555;SDS011;57291;37.520;15.106;2022-07-11T13:02:00;3.47;;;1.85;;
54555;SDS011;57291;37.520;15.106;2022-07-11T13:04:35;5.32;;;1.98;;
54555;SDS011;57291;37.520;15.106;2022-07-11T13:12:48;7.85;;;2.10;;
54555;SDS011;57291;37.520;15.106;2022-07-11T13:15:15;4.07;;;2.10;;
54555;SDS011;57291;37.520;15.106;2022-07-11T13:17:43;3.15;;;2.10;;
54555;SDS011;57291;37.520;15.106;2022-07-11T13:20:11;4.05;;;1.80;;
54555;SDS011;57291;37.520;15.106;2022-07-11T13:22:40;3.63;;;1.88;;
54555;SDS011;57291;37.520;15.106;2022-07-11T13:25:07;3.72;;;2.08;;
54555;SDS011;57291;37.520;15.106;2022-07-11T13:27:33;3.00;;;1.80;;
54555;SDS011;57291;37.520;15.106;2022-07-11T13:29:59;3.42;;;1.83;;
54555;SDS011;57291;37.520;15.106;2022-07-11T13:32:26;5.05;;;1.98;;
54555;SDS011;57291;37.520;15.106;2022-07-11T13:34:51;5.95;;;2.10;;
54555;SDS011;57291;37.520;15.106;2022-07-11T13:37:17;4.40;;;2.47;;
54555;SDS011;57291;37.520;15.106;2022-07-11T13:39:43;4.80;;;2.03;;
54555;SDS011;57291;37.520;15.106;2022-07-11T13:42:09;4.15;;;2.25;;
54555;SDS011;57291;37.520;15.106;2022-07-11T13:44:35;7.03;;;2.40;;
54555;SDS011;57291;37.520;15.106;2022-07-11T13:47:01;4.43;;;2.20;;
54555;SDS011;57291;37.520;15.106;2022-07-11T13:49:27;5.97;;;2.25;;
54555;SDS011;57291;37.520;15.106;2022-07-11T13:51:54;5.45;;;2.03;;
54555;SDS011;57291;37.520;15.106;2022-07-11T13:54:20;4.15;;;1.75;;
54555;SDS011;57291;37.520;15.106;2022-07-11T13:56:46;8.00;;;2.42;;
54555;SDS011;57291;37.520;15.106;2022-07-11T13:59:11;5.13;;;2.30;;
54555;SDS011;57291;37.520;15.106;2022-07-11T14:01:37;5.18;;;2.35;;
54555;SDS011;57291;37.520;15.106;2022-07-11T14:04:03;5.15;;;2.05;;
54555;SDS011;57291;37.520;15.106;2022-07-11T14:06:29;4.45;;;2.30;;
54555;SDS011;57291;37.520;15.106;2022-07-11T14:08:54;4.63;;;2.20;;
54555;SDS011;57291;37.520;15.106;2022-07-11T14:11:20;5.55;;;2.35;;
54555;SDS011;57291;37.520;15.106;2022-07-11T14:13:46;7.22;;;2.10;;
54555;SDS011;57291;37.520;15.106;2022-07-11T14:16:12;5.65;;;2.25;;
54555;SDS011;57291;37.520;15.106;2022-07-11T14:18:38;3.60;;;2.28;;
54555;SDS011;57291;37.520;15.106;2022-07-11T14:21:04;4.70;;;2.40;;
54555;SDS011;57291;37.520;15.106;2022-07-11T14:23:29;4.20;;;2.40;;
54555;SDS011;57291;37.520;15.106;2022-07-11T14:25:56;4.07;;;2.20;;
54555;SDS011;57291;37.520;15.106;2022-07-11T14:28:22;4.43;;;2.40;;
54555;SDS011;57291;37.520;15.106;2022-07-11T14:30:48;4.95;;;2.17;;
54555;SDS011;57291;37.520;15.106;2022-07-11T14:33:15;4.68;;;2.53;;
54555;SDS011;57291;37.520;15.106;2022-07-11T14:35:41;8.18;;;2.40;;
54555;SDS011;57291;37.520;15.106;2022-07-11T14:38:07;8.10;;;2.50;;
54555;SDS011;57291;37.520;15.106;2022-07-11T14:40:32;5.55;;;2.45;;
54555;SDS011;57291;37.520;15.106;2022-07-11T14:42:58;6.75;;;2.72;;
54555;SDS011;57291;37.520;15.106;2022-07-11T14:45:24;7.25;;;2.50;;
54555;SDS011;57291;37.520;15.106;2022-07-11T14:47:50;4.57;;;2.42;;
54555;SDS011;57291;37.520;15.106;2022-07-11T14:50:16;3.83;;;2.22;;
54555;SDS011;57291;37.520;15.106;2022-07-11T14:52:42;4.35;;;2.35;;
54555;SDS011;57291;37.520;15.106;2022-07-11T14:55:09;6.13;;;2.53;;
54555;SDS011;57291;37.520;15.106;2022-07-11T14:57:35;7.13;;;2.50;;
54555;SDS011;57291;37.520;15.106;2022-07-11T15:00:01;6.30;;;2.95;;
54555;SDS011;57291;37.520;15.106;2022-07-11T15:02:27;4.47;;;2.38;;
54555;SDS011;57291;37.520;15.106;2022-07-11T15:05:11;6.38;;;3.17;;
54555;SDS011;57291;37.520;15.106;2022-07-11T15:07:37;4.18;;;2.90;;
54555;SDS011;57291;37.520;15.106;2022-07-11T15:10:21;5.75;;;2.88;;
54555;SDS011;57291;37.520;15.106;2022-07-11T15:13:06;6.55;;;2.85;;
54555;SDS011;57291;37.520;15.106;2022-07-11T15:15:32;4.25;;;2.90;;
54555;SDS011;57291;37.520;15.106;2022-07-11T15:17:58;7.75;;;3.22;;
54555;SDS011;57291;37.520;15.106;2022-07-11T15:20:24;5.40;;;2.53;;
54555;SDS011;57291;37.520;15.106;2022-07-11T15:22:49;6.35;;;2.70;;
54555;SDS011;57291;37.520;15.106;2022-07-11T15:25:15;5.45;;;3.00;;
54555;SDS011;57291;37.520;15.106;2022-07-11T15:27:41;7.40;;;2.95;;
54555;SDS011;57291;37.520;15.106;2022-07-11T15:30:07;9.00;;;3.20;;